Mediterranean Sea — WDG229 — position and weather

sailwx.info

Track history (hours):
 
Tides and Currents Weather Stations Pressure Air Temp Water Temp Dewpoint Dewpoint Depression Visibility Wind Speed Wind Dir Waves Ship Positions

Mediterranean Sea

Last reported at 2015-Mar-26 16:25 UTC. Time now 2015-Mar-26 19:13 UTC.
Position N 40°38' W 074°10'.

Length 33 m; draft 6 m.

Type: Wing in ground effect craft. MMSI: 367010390.

Date/timePositionNaut miles runAvg speedWind from/ knotsBaromVisibWave heightAir tempDewpointWater temp
2015-Mar-26 16:25N 40°38' W 074°10'1 0.2
2015-Mar-26 13:33N 40°39' W 074°10'6 6.4
2015-Mar-26 12:33N 40°40' W 074°02'0 0.0
2015-Mar-26 11:33N 40°40' W 074°02'0 0.0
2015-Mar-26 10:33N 40°40' W 074°02'0 0.0
2015-Mar-26 09:33N 40°40' W 074°02'0 0.1
2015-Mar-26 08:33N 40°40' W 074°02'0 0.1
2015-Mar-26 07:33N 40°40' W 074°02'0 0.0
2015-Mar-26 06:33N 40°40' W 074°02'0 0.2
2015-Mar-26 05:28N 40°40' W 074°02'0 0.0
2015-Mar-26 04:28N 40°40' W 074°02'0 0.0
2015-Mar-26 03:33N 40°40' W 074°02'0 0.1
2015-Mar-26 02:33N 40°40' W 074°02'6 6.4
2015-Mar-26 01:33N 40°46' W 073°57'5 5.3
2015-Mar-26 00:32N 40°48' W 073°51'6 6.1
2015-Mar-25 23:28N 40°52' W 073°44'4 3.9
2015-Mar-25 22:33N 40°54' W 073°40'1 0.8
2015-Mar-25 21:33N 40°53' W 073°41'7 5.4
2015-Mar-25 20:10N 40°58' W 073°33'2 2.2
2015-Mar-25 19:18N 40°59' W 073°30'6 8.1
2015-Mar-25 18:33N 41°01' W 073°23'9 8.7
2015-Mar-25 17:32N 41°02' W 073°11'9 8.8
2015-Mar-25 16:33N 41°03' W 072°60'9 8.5
2015-Mar-25 15:33N 41°05' W 072°49'9 9.3
2015-Mar-25 14:33N 41°07' W 072°37'10 9.5
2015-Mar-25 13:33N 41°10' W 072°25'8 8.0
2015-Mar-25 12:33N 41°13' W 072°15'7 7.5
2015-Mar-25 11:33N 41°15' W 072°05'7 7.2
2015-Mar-25 10:33N 41°15' W 071°56'9 8.8
2015-Mar-25 09:33N 41°17' W 071°44'9 9.5
2015-Mar-25 08:33N 41°18' W 071°32'9 8.7
2015-Mar-25 07:33N 41°25' W 071°24'9 8.5
2015-Mar-25 06:33N 41°33' W 071°20'8 8.1
2015-Mar-25 05:33N 41°41' W 071°19'8 7.8
2015-Mar-25 04:33N 41°48' W 071°23'1 0.6
2015-Mar-25 03:32N 41°48' W 071°24'0 0.0
2015-Mar-25 02:33N 41°48' W 071°24'0 0.0
2015-Mar-25 01:32N 41°48' W 071°24'0 0.0
2015-Mar-25 00:33N 41°48' W 071°24'0 0.0
2015-Mar-24 23:32N 41°48' W 071°24'0 0.0
2015-Mar-24 22:32N 41°48' W 071°24'0 0.0
2015-Mar-24 21:32N 41°48' W 071°24'0 0.0
2015-Mar-24 20:32N 41°48' W 071°24'7 0.5
2015-Mar-24 05:33N 41°42' W 071°20'5 5.0
2015-Mar-24 04:34N 41°37' W 071°18'5 5.2
2015-Mar-24 03:33N 41°32' W 071°20'5 4.8
2015-Mar-24 02:33N 41°28' W 071°22'4 4.3
2015-Mar-24 01:33N 41°24' W 071°24'3 2.9
2015-Mar-24 00:33N 41°21' W 071°26'4 4.3
2015-Mar-23 23:34N 41°18' W 071°29'5 5.4
2015-Mar-23 22:33N 41°18' W 071°37'7 7.1
2015-Mar-23 21:33N 41°16' W 071°46'8 8.3
2015-Mar-23 20:33N 41°15' W 071°57'8 8.2
2015-Mar-23 19:33N 41°14' W 072°07'7 7.3
2015-Mar-23 18:34N 41°12' W 072°17'6 6.4
2015-Mar-23 17:34N 41°10' W 072°25'6 5.5
2015-Mar-23 16:33N 41°08' W 072°32'6 5.5
2015-Mar-23 15:34N 41°07' W 072°39'6 6.0
2015-Mar-23 14:33N 41°06' W 072°47'6 6.3
2015-Mar-23 13:33N 41°04' W 072°55'7 7.0
2015-Mar-23 12:31N 41°02' W 073°04'7 7.3
2015-Mar-23 11:31N 41°01' W 073°14'7 7.6
2015-Mar-23 10:33N 41°00' W 073°23'8 7.7
2015-Mar-23 09:33N 40°57' W 073°32'7 6.7
2015-Mar-23 08:28N 40°54' W 073°41'10 4.6
2015-Mar-23 06:19N 40°48' W 073°52'3 4.2
2015-Mar-23 05:30N 40°47' W 073°56'5 5.4
2015-Mar-23 04:34N 40°42' W 073°59'2 1.6
2015-Mar-23 03:31N 40°42' W 074°01'0 0.3
2015-Mar-23 02:33N 40°42' W 074°01'5 4.8
2015-Mar-23 01:33N 40°39' W 074°06'5 4.9
2015-Mar-23 00:29N 40°37' W 074°12'2 0.1
2015-Mar-22 06:13N 40°35' W 074°13'2 2.0
2015-Mar-22 05:12N 40°33' W 074°14'3 1.6
2015-Mar-22 03:18N 40°36' W 074°12'4 5.7
2015-Mar-22 02:32N 40°39' W 074°07'4 4.2
2015-Mar-22 01:33N 40°40' W 074°02'0 0.0
2015-Mar-22 00:33N 40°40' W 074°02'0 0.1
2015-Mar-21 23:33N 40°40' W 074°02'0 0.1
2015-Mar-21 22:33N 40°40' W 074°02'0 0.1
2015-Mar-21 21:33N 40°40' W 074°02'6 5.9
2015-Mar-21 20:33N 40°38' W 074°10'0 0.0
2015-Mar-21 19:33N 40°38' W 074°10'0 0.0
2015-Mar-21 18:33N 40°38' W 074°10'0 0.0
2015-Mar-21 17:33N 40°38' W 074°10'0 0.0
2015-Mar-21 16:33N 40°38' W 074°10'6 5.5
2015-Mar-21 15:29N 40°40' W 074°02'0 0.0
2015-Mar-21 14:29N 40°40' W 074°02'0 0.0
2015-Mar-21 13:29N 40°40' W 074°02'0 0.1
2015-Mar-21 12:29N 40°40' W 074°02'0 0.1
2015-Mar-21 11:29N 40°40' W 074°02'0 0.0
2015-Mar-21 10:29N 40°40' W 074°02'2 2.3
2015-Mar-21 09:33N 40°41' W 074°00'8 7.3
2015-Mar-21 08:25N 40°48' W 073°54'12 4.0
2015-Mar-21 05:24N 40°55' W 073°41'2 2.4
2015-Mar-21 04:23N 40°55' W 073°38'7 8.5
2015-Mar-21 03:33N 40°59' W 073°29'9 9.2
2015-Mar-21 02:33N 41°01' W 073°17'1010.0
2015-Mar-21 01:33N 41°02' W 073°04'1010.3
2015-Mar-21 00:33N 41°05' W 072°51'1010.4
2015-Mar-20 23:33N 41°07' W 072°38'1110.6
2015-Mar-20 22:33N 41°10' W 072°24'10 9.5
2015-Mar-20 21:33N 41°14' W 072°12'8 7.8
2015-Mar-20 20:33N 41°14' W 072°02'8 8.1
2015-Mar-20 19:33N 41°16' W 071°52'9 8.7
2015-Mar-20 18:33N 41°17' W 071°40'9 9.3
2015-Mar-20 17:33N 41°18' W 071°28'1010.0
2015-Mar-20 16:33N 41°28' W 071°22'9 9.0
2015-Mar-20 15:33N 41°36' W 071°18'8 8.2
2015-Mar-20 14:33N 41°44' W 071°22'5 4.3
2015-Mar-20 13:29N 41°48' W 071°24'0 0.0
2015-Mar-20 12:23N 41°48' W 071°24'0 0.0
2015-Mar-20 11:23N 41°48' W 071°24'0 0.0
2015-Mar-20 10:23N 41°48' W 071°24'0 0.0
2015-Mar-20 09:29N 41°48' W 071°24'0 0.0
2015-Mar-20 08:29N 41°48' W 071°24'0 0.0
2015-Mar-20 07:29N 41°48' W 071°24'0 0.0
2015-Mar-20 06:29N 41°48' W 071°24'0 0.0
2015-Mar-20 05:29N 41°48' W 071°24'0 0.0
2015-Mar-20 04:29N 41°48' W 071°24'0 0.0
2015-Mar-20 03:29N 41°48' W 071°24'0 0.0
2015-Mar-20 02:29N 41°48' W 071°24'2 1.6
2015-Mar-20 01:31N 41°47' W 071°22'0 0.0
2015-Mar-20 00:31N 41°47' W 071°22'0 0.0
2015-Mar-19 23:31N 41°47' W 071°22'0 0.0
2015-Mar-19 22:31N 41°47' W 071°22'0 0.0
2015-Mar-19 20:31N 41°47' W 071°22'0 0.0
2015-Mar-19 19:13N 41°47' W 071°22'0 0.0
2015-Mar-19 18:31N 41°47' W 071°22'0 0.0
2015-Mar-19 17:31N 41°47' W 071°22'0 0.0
2015-Mar-19 16:31N 41°47' W 071°22'0 0.0
2015-Mar-19 15:25N 41°47' W 071°22'0 0.0
2015-Mar-19 14:31N 41°47' W 071°22'0 0.0
2015-Mar-19 13:33N 41°47' W 071°22'0 0.0
2015-Mar-19 12:33N 41°47' W 071°22'0 0.0
2015-Mar-19 11:33N 41°47' W 071°22'4 3.5
2015-Mar-19 10:33N 41°44' W 071°21'8 8.1
2015-Mar-19 09:33N 41°36' W 071°18'5 5.2
2015-Mar-19 08:33N 41°31' W 071°21'2 2.2
2015-Mar-19 07:33N 41°29' W 071°21'5 4.7
2015-Mar-19 06:33N 41°24' W 071°22'6 6.0
2015-Mar-19 05:33N 41°19' W 071°25'8 7.6
2015-Mar-19 04:33N 41°18' W 071°35'8 7.6
2015-Mar-19 03:33N 41°16' W 071°45'7 7.2
2015-Mar-19 02:33N 41°15' W 071°54'6 6.3
2015-Mar-19 01:33N 41°14' W 072°02'5 4.5
2015-Mar-19 00:33N 41°14' W 072°08'5 4.8
2015-Mar-18 23:33N 41°13' W 072°15'5 4.9
2015-Mar-18 22:33N 41°11' W 072°21'5 5.4
2015-Mar-18 21:33N 41°09' W 072°27'6 6.3
2015-Mar-18 20:33N 41°07' W 072°35'7 7.2
2015-Mar-18 19:33N 41°05' W 072°44'7 6.9
2015-Mar-18 18:33N 41°03' W 072°53'7 7.5
2015-Mar-18 17:33N 41°02' W 073°03'9 7.6
2015-Mar-18 16:26N 41°01' W 073°14'6 7.2
2015-Mar-18 15:33N 41°01' W 073°23'7 7.1
2015-Mar-18 14:33N 40°58' W 073°31'7 6.6
2015-Mar-18 13:29N 40°55' W 073°40'12 2.0
2015-Mar-18 07:23N 40°48' W 073°53'5 5.8
2015-Mar-18 06:33N 40°45' W 073°58'4 3.6
2015-Mar-18 05:33N 40°42' W 074°00'3 3.4
2015-Mar-18 04:33N 40°40' W 074°04'0 0.2
2015-Mar-18 03:33N 40°40' W 074°04'5 5.0
2015-Mar-18 02:33N 40°42' W 073°58'0 0.0
2015-Mar-18 01:33N 40°42' W 073°58'0 0.0
2015-Mar-18 00:33N 40°42' W 073°58'0 0.0
2015-Mar-17 23:33N 40°42' W 073°58'0 0.0
2015-Mar-17 22:33N 40°42' W 073°58'5 4.8
2015-Mar-17 21:33N 40°40' W 074°04'1 0.8
2015-Mar-17 20:33N 40°39' W 074°05'5 4.7
2015-Mar-17 19:33N 40°39' W 074°11'1 0.2
2015-Mar-17 14:33N 40°39' W 074°10'0 0.0
2015-Mar-17 13:28N 40°38' W 074°10'0 0.0
2015-Mar-17 12:33N 40°38' W 074°10'0 0.0
2015-Mar-17 11:33N 40°38' W 074°10'0 0.0
2015-Mar-17 10:32N 40°39' W 074°10'0 0.0
2015-Mar-17 09:33N 40°38' W 074°10'0 0.0
2015-Mar-17 08:33N 40°39' W 074°10'0 0.0
2015-Mar-17 07:33N 40°38' W 074°10'0 0.0
2015-Mar-17 06:33N 40°38' W 074°10'0 0.0
2015-Mar-17 05:33N 40°38' W 074°10'0 0.0
2015-Mar-17 04:33N 40°38' W 074°10'0 0.0
2015-Mar-17 03:33N 40°38' W 074°10'0 0.0
2015-Mar-17 02:31N 40°38' W 074°10'0 0.0
2015-Mar-17 01:33N 40°38' W 074°10'0 0.0
2015-Mar-17 00:33N 40°38' W 074°10'0 0.0
2015-Mar-16 23:33N 40°39' W 074°10'0 0.0
2015-Mar-16 22:33N 40°39' W 074°10'0 0.0
2015-Mar-16 21:33N 40°39' W 074°10'0 0.0
2015-Mar-16 20:33N 40°39' W 074°10'0 0.0
2015-Mar-16 19:33N 40°39' W 074°10'0 0.0
2015-Mar-16 18:33N 40°38' W 074°10'0 0.0
2015-Mar-16 17:33N 40°38' W 074°10'0 0.0
2015-Mar-16 16:33N 40°38' W 074°10'  
Track history (hours):
 
Tides and Currents Weather Stations Pressure Air Temp Water Temp Dewpoint Dewpoint Depression Visibility Wind Speed Wind Dir Waves Ship Positions

Mediterranean Sea

Last reported at 2015-Mar-26 16:25 UTC. Time now 2015-Mar-26 19:13 UTC.
Position N 40°38' W 074°10'.

Length 33 m; draft 6 m.

Type: Wing in ground effect craft. MMSI: 367010390.

Date/timePositionNaut miles runAvg speedWind from/ knotsBaromVisibWave heightAir tempDewpointWater temp
2015-Mar-26 16:25N 40°38' W 074°10'1 0.2
2015-Mar-26 13:33N 40°39' W 074°10'6 6.4
2015-Mar-26 12:33N 40°40' W 074°02'0 0.0
2015-Mar-26 11:33N 40°40' W 074°02'0 0.0
2015-Mar-26 10:33N 40°40' W 074°02'0 0.0
2015-Mar-26 09:33N 40°40' W 074°02'0 0.1
2015-Mar-26 08:33N 40°40' W 074°02'0 0.1
2015-Mar-26 07:33N 40°40' W 074°02'0 0.0
2015-Mar-26 06:33N 40°40' W 074°02'0 0.2
2015-Mar-26 05:28N 40°40' W 074°02'0 0.0
2015-Mar-26 04:28N 40°40' W 074°02'0 0.0
2015-Mar-26 03:33N 40°40' W 074°02'0 0.1
2015-Mar-26 02:33N 40°40' W 074°02'6 6.4
2015-Mar-26 01:33N 40°46' W 073°57'5 5.3
2015-Mar-26 00:32N 40°48' W 073°51'6 6.1
2015-Mar-25 23:28N 40°52' W 073°44'4 3.9
2015-Mar-25 22:33N 40°54' W 073°40'1 0.8
2015-Mar-25 21:33N 40°53' W 073°41'7 5.4
2015-Mar-25 20:10N 40°58' W 073°33'2 2.2
2015-Mar-25 19:18N 40°59' W 073°30'6 8.1
2015-Mar-25 18:33N 41°01' W 073°23'9 8.7
2015-Mar-25 17:32N 41°02' W 073°11'9 8.8
2015-Mar-25 16:33N 41°03' W 072°60'9 8.5
2015-Mar-25 15:33N 41°05' W 072°49'9 9.3
2015-Mar-25 14:33N 41°07' W 072°37'10 9.5
2015-Mar-25 13:33N 41°10' W 072°25'8 8.0
2015-Mar-25 12:33N 41°13' W 072°15'7 7.5
2015-Mar-25 11:33N 41°15' W 072°05'7 7.2
2015-Mar-25 10:33N 41°15' W 071°56'9 8.8
2015-Mar-25 09:33N 41°17' W 071°44'9 9.5
2015-Mar-25 08:33N 41°18' W 071°32'9 8.7
2015-Mar-25 07:33N 41°25' W 071°24'9 8.5
2015-Mar-25 06:33N 41°33' W 071°20'8 8.1
2015-Mar-25 05:33N 41°41' W 071°19'8 7.8
2015-Mar-25 04:33N 41°48' W 071°23'1 0.6
2015-Mar-25 03:32N 41°48' W 071°24'0 0.0
2015-Mar-25 02:33N 41°48' W 071°24'0 0.0
2015-Mar-25 01:32N 41°48' W 071°24'0 0.0
2015-Mar-25 00:33N 41°48' W 071°24'0 0.0
2015-Mar-24 23:32N 41°48' W 071°24'0 0.0
2015-Mar-24 22:32N 41°48' W 071°24'0 0.0
2015-Mar-24 21:32N 41°48' W 071°24'0 0.0
2015-Mar-24 20:32N 41°48' W 071°24'7 0.5
2015-Mar-24 05:33N 41°42' W 071°20'5 5.0
2015-Mar-24 04:34N 41°37' W 071°18'5 5.2
2015-Mar-24 03:33N 41°32' W 071°20'5 4.8
2015-Mar-24 02:33N 41°28' W 071°22'4 4.3
2015-Mar-24 01:33N 41°24' W 071°24'3 2.9
2015-Mar-24 00:33N 41°21' W 071°26'4 4.3
2015-Mar-23 23:34N 41°18' W 071°29'5 5.4
2015-Mar-23 22:33N 41°18' W 071°37'7 7.1
2015-Mar-23 21:33N 41°16' W 071°46'8 8.3
2015-Mar-23 20:33N 41°15' W 071°57'8 8.2
2015-Mar-23 19:33N 41°14' W 072°07'7 7.3
2015-Mar-23 18:34N 41°12' W 072°17'6 6.4
2015-Mar-23 17:34N 41°10' W 072°25'6 5.5
2015-Mar-23 16:33N 41°08' W 072°32'6 5.5
2015-Mar-23 15:34N 41°07' W 072°39'6 6.0
2015-Mar-23 14:33N 41°06' W 072°47'6 6.3
2015-Mar-23 13:33N 41°04' W 072°55'7 7.0
2015-Mar-23 12:31N 41°02' W 073°04'7 7.3
2015-Mar-23 11:31N 41°01' W 073°14'7 7.6
2015-Mar-23 10:33N 41°00' W 073°23'8 7.7
2015-Mar-23 09:33N 40°57' W 073°32'7 6.7
2015-Mar-23 08:28N 40°54' W 073°41'10 4.6
2015-Mar-23 06:19N 40°48' W 073°52'3 4.2
2015-Mar-23 05:30N 40°47' W 073°56'5 5.4
2015-Mar-23 04:34N 40°42' W 073°59'2 1.6
2015-Mar-23 03:31N 40°42' W 074°01'0 0.3
2015-Mar-23 02:33N 40°42' W 074°01'5 4.8
2015-Mar-23 01:33N 40°39' W 074°06'5 4.9
2015-Mar-23 00:29N 40°37' W 074°12'2 0.1
2015-Mar-22 06:13N 40°35' W 074°13'2 2.0
2015-Mar-22 05:12N 40°33' W 074°14'3 1.6
2015-Mar-22 03:18N 40°36' W 074°12'4 5.7
2015-Mar-22 02:32N 40°39' W 074°07'4 4.2
2015-Mar-22 01:33N 40°40' W 074°02'0 0.0
2015-Mar-22 00:33N 40°40' W 074°02'0 0.1
2015-Mar-21 23:33N 40°40' W 074°02'0 0.1
2015-Mar-21 22:33N 40°40' W 074°02'0 0.1
2015-Mar-21 21:33N 40°40' W 074°02'6 5.9
2015-Mar-21 20:33N 40°38' W 074°10'0 0.0
2015-Mar-21 19:33N 40°38' W 074°10'0 0.0
2015-Mar-21 18:33N 40°38' W 074°10'0 0.0
2015-Mar-21 17:33N 40°38' W 074°10'0 0.0
2015-Mar-21 16:33N 40°38' W 074°10'6 5.5
2015-Mar-21 15:29N 40°40' W 074°02'0 0.0
2015-Mar-21 14:29N 40°40' W 074°02'0 0.0
2015-Mar-21 13:29N 40°40' W 074°02'0 0.1
2015-Mar-21 12:29N 40°40' W 074°02'0 0.1
2015-Mar-21 11:29N 40°40' W 074°02'0 0.0
2015-Mar-21 10:29N 40°40' W 074°02'2 2.3
2015-Mar-21 09:33N 40°41' W 074°00'8 7.3
2015-Mar-21 08:25N 40°48' W 073°54'12 4.0
2015-Mar-21 05:24N 40°55' W 073°41'2 2.4
2015-Mar-21 04:23N 40°55' W 073°38'7 8.5
2015-Mar-21 03:33N 40°59' W 073°29'9 9.2
2015-Mar-21 02:33N 41°01' W 073°17'1010.0
2015-Mar-21 01:33N 41°02' W 073°04'1010.3
2015-Mar-21 00:33N 41°05' W 072°51'1010.4
2015-Mar-20 23:33N 41°07' W 072°38'1110.6
2015-Mar-20 22:33N 41°10' W 072°24'10 9.5
2015-Mar-20 21:33N 41°14' W 072°12'8 7.8
2015-Mar-20 20:33N 41°14' W 072°02'8 8.1
2015-Mar-20 19:33N 41°16' W 071°52'9 8.7
2015-Mar-20 18:33N 41°17' W 071°40'9 9.3
2015-Mar-20 17:33N 41°18' W 071°28'1010.0
2015-Mar-20 16:33N 41°28' W 071°22'9 9.0
2015-Mar-20 15:33N 41°36' W 071°18'8 8.2
2015-Mar-20 14:33N 41°44' W 071°22'5 4.3
2015-Mar-20 13:29N 41°48' W 071°24'0 0.0
2015-Mar-20 12:23N 41°48' W 071°24'0 0.0
2015-Mar-20 11:23N 41°48' W 071°24'0 0.0
2015-Mar-20 10:23N 41°48' W 071°24'0 0.0
2015-Mar-20 09:29N 41°48' W 071°24'0 0.0
2015-Mar-20 08:29N 41°48' W 071°24'0 0.0
2015-Mar-20 07:29N 41°48' W 071°24'0 0.0
2015-Mar-20 06:29N 41°48' W 071°24'0 0.0
2015-Mar-20 05:29N 41°48' W 071°24'0 0.0
2015-Mar-20 04:29N 41°48' W 071°24'0 0.0
2015-Mar-20 03:29N 41°48' W 071°24'0 0.0
2015-Mar-20 02:29N 41°48' W 071°24'2 1.6
2015-Mar-20 01:31N 41°47' W 071°22'0 0.0
2015-Mar-20 00:31N 41°47' W 071°22'0 0.0
2015-Mar-19 23:31N 41°47' W 071°22'0 0.0
2015-Mar-19 22:31N 41°47' W 071°22'0 0.0
2015-Mar-19 20:31N 41°47' W 071°22'0 0.0
2015-Mar-19 19:13N 41°47' W 071°22'0 0.0
2015-Mar-19 18:31N 41°47' W 071°22'0 0.0
2015-Mar-19 17:31N 41°47' W 071°22'0 0.0
2015-Mar-19 16:31N 41°47' W 071°22'0 0.0
2015-Mar-19 15:25N 41°47' W 071°22'0 0.0
2015-Mar-19 14:31N 41°47' W 071°22'0 0.0
2015-Mar-19 13:33N 41°47' W 071°22'0 0.0
2015-Mar-19 12:33N 41°47' W 071°22'0 0.0
2015-Mar-19 11:33N 41°47' W 071°22'4 3.5
2015-Mar-19 10:33N 41°44' W 071°21'8 8.1
2015-Mar-19 09:33N 41°36' W 071°18'5 5.2
2015-Mar-19 08:33N 41°31' W 071°21'2 2.2
2015-Mar-19 07:33N 41°29' W 071°21'5 4.7
2015-Mar-19 06:33N 41°24' W 071°22'6 6.0
2015-Mar-19 05:33N 41°19' W 071°25'8 7.6
2015-Mar-19 04:33N 41°18' W 071°35'8 7.6
2015-Mar-19 03:33N 41°16' W 071°45'7 7.2
2015-Mar-19 02:33N 41°15' W 071°54'6 6.3
2015-Mar-19 01:33N 41°14' W 072°02'5 4.5
2015-Mar-19 00:33N 41°14' W 072°08'5 4.8
2015-Mar-18 23:33N 41°13' W 072°15'5 4.9
2015-Mar-18 22:33N 41°11' W 072°21'5 5.4
2015-Mar-18 21:33N 41°09' W 072°27'6 6.3
2015-Mar-18 20:33N 41°07' W 072°35'7 7.2
2015-Mar-18 19:33N 41°05' W 072°44'7 6.9
2015-Mar-18 18:33N 41°03' W 072°53'7 7.5
2015-Mar-18 17:33N 41°02' W 073°03'9 7.6
2015-Mar-18 16:26N 41°01' W 073°14'6 7.2
2015-Mar-18 15:33N 41°01' W 073°23'7 7.1
2015-Mar-18 14:33N 40°58' W 073°31'7 6.6
2015-Mar-18 13:29N 40°55' W 073°40'12 2.0
2015-Mar-18 07:23N 40°48' W 073°53'5 5.8
2015-Mar-18 06:33N 40°45' W 073°58'4 3.6
2015-Mar-18 05:33N 40°42' W 074°00'3 3.4
2015-Mar-18 04:33N 40°40' W 074°04'0 0.2
2015-Mar-18 03:33N 40°40' W 074°04'5 5.0
2015-Mar-18 02:33N 40°42' W 073°58'0 0.0
2015-Mar-18 01:33N 40°42' W 073°58'0 0.0
2015-Mar-18 00:33N 40°42' W 073°58'0 0.0
2015-Mar-17 23:33N 40°42' W 073°58'0 0.0
2015-Mar-17 22:33N 40°42' W 073°58'5 4.8
2015-Mar-17 21:33N 40°40' W 074°04'1 0.8
2015-Mar-17 20:33N 40°39' W 074°05'5 4.7
2015-Mar-17 19:33N 40°39' W 074°11'1 0.2
2015-Mar-17 14:33N 40°39' W 074°10'0 0.0
2015-Mar-17 13:28N 40°38' W 074°10'0 0.0
2015-Mar-17 12:33N 40°38' W 074°10'0 0.0
2015-Mar-17 11:33N 40°38' W 074°10'0 0.0
2015-Mar-17 10:32N 40°39' W 074°10'0 0.0
2015-Mar-17 09:33N 40°38' W 074°10'0 0.0
2015-Mar-17 08:33N 40°39' W 074°10'0 0.0
2015-Mar-17 07:33N 40°38' W 074°10'0 0.0
2015-Mar-17 06:33N 40°38' W 074°10'0 0.0
2015-Mar-17 05:33N 40°38' W 074°10'0 0.0
2015-Mar-17 04:33N 40°38' W 074°10'0 0.0
2015-Mar-17 03:33N 40°38' W 074°10'0 0.0
2015-Mar-17 02:31N 40°38' W 074°10'0 0.0
2015-Mar-17 01:33N 40°38' W 074°10'0 0.0
2015-Mar-17 00:33N 40°38' W 074°10'0 0.0
2015-Mar-16 23:33N 40°39' W 074°10'0 0.0
2015-Mar-16 22:33N 40°39' W 074°10'0 0.0
2015-Mar-16 21:33N 40°39' W 074°10'0 0.0
2015-Mar-16 20:33N 40°39' W 074°10'0 0.0
2015-Mar-16 19:33N 40°39' W 074°10'0 0.0
2015-Mar-16 18:33N 40°38' W 074°10'0 0.0
2015-Mar-16 17:33N 40°38' W 074°10'0 0.0
2015-Mar-16 16:33N 40°38' W 074°10'  

Dump ship's entire track history